Time;durP1;ratioP1;P1;durP2;ratioP2;P2;SDS_P1;SDS_P2;PMS_P1;PMS_P2;Temp;Humidity;BMP_temperature;BMP_pressure;BME280_temperature;BME280_humidity;BME280_pressure;Samples;Min_cycle;Max_cycle;Signal;HPM_P1;HPM_P2
2022/04/02 00:01:39;;;;;;;18.23;13.50;;;2.90;99.90;;;;;;6112035;23;20556;-84
2022/04/02 00:04:15;;;;;;;15.65;11.30;;;3.00;99.90;;;;;;6107566;23;20180;-84
2022/04/02 00:06:44;;;;;;;16.42;11.88;;;2.80;99.90;;;;;;6108930;23;20219;-85
2022/04/02 00:09:12;;;;;;;10.52;7.50;;;2.80;99.90;;;;;;6107970;23;20204;-85
2022/04/02 00:11:45;;;;;;;15.98;10.02;;;2.70;99.90;;;;;;6107657;23;20260;-85
2022/04/02 00:29:20;;;;;;;14.02;9.88;;;2.80;99.90;;;;;;6064978;23;20201;-85
2022/04/02 00:35:18;;;;;;;18.10;12.93;;;2.80;99.90;;;;;;5124179;27;1312002;-84
2022/04/02 00:38:00;;;;;;;12.02;8.05;;;2.90;99.90;;;;;;5141547;28;20476;-84
2022/04/02 00:40:42;;;;;;;20.35;14.43;;;2.80;99.90;;;;;;5141649;28;20207;-85
2022/04/02 00:43:21;;;;;;;17.80;12.00;;;2.70;99.90;;;;;;5140594;28;20199;-85
2022/04/02 00:45:55;;;;;;;18.52;14.25;;;2.50;99.90;;;;;;5143671;28;20203;-85
2022/04/02 00:48:37;;;;;;;21.52;15.38;;;2.70;99.90;;;;;;5150907;28;20275;-84
2022/04/02 00:51:18;;;;;;;17.75;12.90;;;2.90;99.90;;;;;;5150477;28;20203;-85
2022/04/02 00:54:17;;;;;;;14.20;10.85;;;2.90;99.90;;;;;;5148834;28;20229;-84
2022/04/02 00:56:50;;;;;;;17.25;11.95;;;2.90;99.90;;;;;;5153592;28;20235;-84
2022/04/02 00:59:39;;;;;;;18.60;13.80;;;3.10;99.90;;;;;;5153249;28;20222;-84
2022/04/02 01:02:18;;;;;;;20.73;14.85;;;2.80;99.90;;;;;;5073325;28;20210;-85
2022/04/02 01:04:54;;;;;;;20.27;14.05;;;3.00;99.90;;;;;;5133899;28;20643;-85
2022/04/02 01:07:29;;;;;;;23.02;15.30;;;2.90;99.90;;;;;;5136110;28;20303;-85
2022/04/02 01:10:04;;;;;;;24.85;15.55;;;2.80;99.90;;;;;;5136862;28;20618;-85
2022/04/02 01:12:36;;;;;;;17.52;12.98;;;3.00;99.90;;;;;;5136749;28;20219;-85
2022/04/02 01:15:11;;;;;;;20.27;11.10;;;3.00;99.90;;;;;;5143389;28;20599;-84
2022/04/02 01:17:53;;;;;;;18.90;13.98;;;3.00;99.90;;;;;;5142471;28;20237;-85
2022/04/02 01:20:25;;;;;;;19.80;14.77;;;2.60;99.90;;;;;;5133558;28;20206;-85
2022/04/02 01:23:04;;;;;;;15.93;11.18;;;3.00;99.90;;;;;;5136923;28;20248;-85
2022/04/02 01:25:37;;;;;;;19.42;15.50;;;3.10;99.90;;;;;;5136394;28;20219;-84
2022/04/02 01:28:13;;;;;;;20.08;12.70;;;3.00;99.90;;;;;;5137798;28;20229;-84
2022/04/02 01:30:48;;;;;;;21.30;14.98;;;3.10;99.90;;;;;;5138016;28;20262;-84
2022/04/02 01:33:20;;;;;;;14.48;11.48;;;3.00;99.90;;;;;;5137198;28;20288;-84
2022/04/02 01:36:22;;;;;;;18.15;13.80;;;3.00;99.90;;;;;;5137078;28;20294;-84
2022/04/02 01:39:05;;;;;;;17.63;11.68;;;3.00;99.90;;;;;;5135335;28;20252;-84
2022/04/02 01:41:57;;;;;;;13.98;9.27;;;3.00;99.90;;;;;;5134968;28;20203;-84
2022/04/02 01:44:33;;;;;;;15.05;9.68;;;3.10;99.90;;;;;;5132538;28;20821;-84
2022/04/02 01:47:03;;;;;;;14.95;11.48;;;2.90;99.90;;;;;;5122574;28;20291;-84
2022/04/02 01:49:36;;;;;;;19.20;13.20;;;3.00;99.90;;;;;;5121651;28;20277;-84
2022/04/02 01:52:18;;;;;;;19.20;14.40;;;2.80;99.90;;;;;;5121999;28;20196;-84
2022/04/02 01:54:48;;;;;;;13.60;9.65;;;3.10;99.90;;;;;;5120703;28;20232;-84
2022/04/02 01:57:20;;;;;;;22.67;15.07;;;2.90;99.90;;;;;;5120775;28;20261;-84
2022/04/02 01:59:56;;;;;;;18.52;13.30;;;3.00;99.90;;;;;;5124593;28;20248;-84
2022/04/02 02:02:48;;;;;;;14.45;6.82;;;3.00;99.90;;;;;;5124545;28;20668;-84
2022/04/02 02:08:05;;;;;;;13.55;7.57;;;3.00;99.90;;;;;;5128743;28;20264;-84
2022/04/02 02:10:44;;;;;;;17.90;11.60;;;2.90;99.90;;;;;;5126209;28;20204;-84
2022/04/02 02:13:18;;;;;;;15.73;11.85;;;3.00;99.90;;;;;;5128960;28;20238;-84
2022/04/02 02:16:10;;;;;;;15.05;11.45;;;2.90;99.90;;;;;;5123105;28;20264;-84
2022/04/02 02:21:25;;;;;;;13.75;6.40;;;2.40;99.90;;;;;;5133873;28;20220;-85
2022/04/02 02:23:58;;;;;;;15.15;10.10;;;2.90;99.90;;;;;;5137725;28;20200;-84
2022/04/02 02:26:37;;;;;;;14.45;10.73;;;2.80;99.90;;;;;;5139820;28;20184;-84
2022/04/02 02:29:18;;;;;;;12.75;8.30;;;3.10;99.90;;;;;;5139860;28;20188;-85
2022/04/02 02:31:58;;;;;;;13.85;10.38;;;2.90;99.90;;;;;;5139199;28;20199;-85
2022/04/02 02:37:16;;;;;;;12.50;8.73;;;3.10;99.90;;;;;;5122193;28;20226;-86
2022/04/02 02:42:45;;;;;;;10.23;6.55;;;2.80;99.90;;;;;;5122392;28;20211;-85
2022/04/02 02:45:16;;;;;;;12.52;8.50;;;2.90;99.90;;;;;;5120323;28;20196;-85
2022/04/02 02:47:51;;;;;;;13.20;10.98;;;2.70;99.90;;;;;;5120126;28;20246;-84
2022/04/02 02:50:39;;;;;;;12.48;8.68;;;2.70;99.90;;;;;;5120965;28;20597;-86
2022/04/02 02:53:17;;;;;;;11.48;7.18;;;3.10;99.90;;;;;;5122103;28;20199;-85
2022/04/02 02:55:55;;;;;;;16.98;11.30;;;2.90;99.90;;;;;;5129037;28;20643;-85
2022/04/02 02:58:43;;;;;;;13.27;10.27;;;2.50;99.90;;;;;;5127794;28;20212;-84
2022/04/02 03:01:19;;;;;;;15.80;8.80;;;2.40;99.90;;;;;;5121846;28;20211;-85
2022/04/02 03:03:47;;;;;;;13.70;9.60;;;2.60;99.90;;;;;;5120882;28;20282;-84
2022/04/02 03:06:48;;;;;;;13.15;8.80;;;3.20;99.90;;;;;;5120840;28;20265;-84
2022/04/02 03:09:28;;;;;;;12.32;7.65;;;3.00;99.90;;;;;;5131526;28;20191;-84
2022/04/02 03:12:00;;;;;;;11.27;7.80;;;3.00;99.90;;;;;;5139306;28;20184;-83
2022/04/02 03:14:46;;;;;;;;;;;;;;;;;;;;;
2022/04/02 03:17:18;;;;;;;9.40;5.88;;;2.90;99.90;;;;;;5120943;28;20230;-84
2022/04/02 03:19:48;;;;;;;11.15;8.10;;;3.00;99.90;;;;;;5121566;28;20542;-84
2022/04/02 03:22:28;;;;;;;15.60;10.63;;;2.90;99.90;;;;;;5120581;28;20219;-85
2022/04/02 03:24:58;;;;;;;14.52;10.70;;;3.00;99.90;;;;;;5120673;28;20204;-84
2022/04/02 03:27:33;;;;;;;13.07;10.10;;;3.10;99.90;;;;;;5120832;28;20241;-84
2022/04/02 03:30:21;;;;;;;14.25;7.57;;;2.60;99.90;;;;;;5121163;28;20191;-85
2022/04/02 03:32:56;;;;;;;12.95;7.32;;;3.10;99.90;;;;;;5120500;28;20659;-84
2022/04/02 03:35:29;;;;;;;13.18;9.60;;;3.10;99.90;;;;;;5120322;28;20223;-84
2022/04/02 03:38:05;;;;;;;11.68;9.50;;;3.00;99.90;;;;;;5120325;28;20273;-83
2022/04/02 03:40:46;;;;;;;23.85;10.65;;;2.60;99.90;;;;;;5120508;28;20191;-84
2022/04/02 03:43:18;;;;;;;11.55;4.75;;;2.50;99.90;;;;;;5120121;28;20207;-86
2022/04/02 03:47:07;;;;;;;10.48;7.60;;;2.90;99.90;;;;;;5125011;28;20211;-86
2022/04/02 03:48:48;;;;;;;10.90;5.70;;;2.60;99.90;;;;;;5137479;28;20247;-84
2022/04/02 03:51:34;;;;;;;18.40;11.30;;;2.40;99.90;;;;;;5138132;28;20176;-85
2022/04/02 03:54:24;;;;;;;14.88;8.82;;;2.60;99.90;;;;;;5128236;28;20227;-85
2022/04/02 03:57:00;;;;;;;16.25;8.68;;;1.90;99.90;;;;;;5128752;28;20214;-85
2022/04/02 03:59:28;;;;;;;10.52;6.50;;;2.50;99.90;;;;;;5131370;28;20184;-84
2022/04/02 04:02:04;;;;;;;13.98;10.38;;;2.30;99.90;;;;;;5135336;28;20204;-84
2022/04/02 04:04:36;;;;;;;14.35;9.55;;;2.40;99.90;;;;;;5121725;28;20233;-85
2022/04/02 04:07:12;;;;;;;15.55;9.32;;;2.40;99.90;;;;;;5120049;28;20258;-84
2022/04/02 04:09:46;;;;;;;14.90;9.35;;;2.60;99.90;;;;;;5119611;28;20268;-86
2022/04/02 04:12:17;;;;;;;12.88;7.75;;;2.00;99.90;;;;;;5120191;28;20188;-85
2022/04/02 04:14:55;;;;;;;14.43;8.80;;;2.60;99.90;;;;;;5120884;28;20220;-85
2022/04/02 04:17:32;;;;;;;13.80;8.27;;;2.20;99.90;;;;;;5123409;28;20277;-86
2022/04/02 04:19:59;;;;;;;20.80;8.90;;;2.40;99.90;;;;;;5124129;28;20199;-85
2022/04/02 04:22:34;;;;;;;14.93;8.18;;;2.60;99.90;;;;;;5125897;28;20236;-85
2022/04/02 04:25:09;;;;;;;13.10;7.25;;;2.20;99.90;;;;;;5121786;28;20198;-85
2022/04/02 04:27:54;;;;;;;13.82;7.80;;;2.60;99.90;;;;;;5122473;28;20227;-85
2022/04/02 04:30:27;;;;;;;19.10;8.38;;;2.70;99.90;;;;;;5120280;28;20207;-84
2022/04/02 04:33:14;;;;;;;;;;;;;;;;;;;;;
2022/04/02 04:35:45;;;;;;;26.15;8.85;;;2.50;99.90;;;;;;5120861;28;20220;-84
2022/04/02 04:38:12;;;;;;;14.77;9.27;;;2.70;99.90;;;;;;5149328;22;20237;-85
2022/04/02 04:40:39;;;;;;;12.77;8.80;;;2.50;99.90;;;;;;5082461;28;20276;-85
2022/04/02 04:43:07;;;;;;;14.52;9.00;;;2.40;99.90;;;;;;5093448;28;20233;-85
2022/04/02 04:45:34;;;;;;;16.60;8.68;;;2.50;99.90;;;;;;5088804;28;20258;-85
2022/04/02 04:48:02;;;;;;;16.83;10.43;;;2.50;99.90;;;;;;5075267;28;20253;-84
2022/04/02 04:50:29;;;;;;;13.43;9.73;;;2.40;99.90;;;;;;5075502;28;20257;-85
2022/04/02 04:52:56;;;;;;;12.75;8.05;;;2.50;99.90;;;;;;5075510;28;20291;-84
2022/04/02 04:55:23;;;;;;;13.88;9.70;;;2.60;99.90;;;;;;5076148;28;20336;-83
2022/04/02 04:57:50;;;;;;;18.65;9.45;;;2.50;99.90;;;;;;5076972;28;20221;-84
2022/04/02 05:00:18;;;;;;;9.88;6.55;;;2.30;99.90;;;;;;5081494;28;20297;-85
2022/04/02 05:02:45;;;;;;;15.38;11.93;;;2.30;99.90;;;;;;5077844;28;20605;-84
2022/04/02 05:05:14;;;;;;;10.93;6.45;;;2.20;99.90;;;;;;5079024;28;20201;-86
2022/04/02 05:07:42;;;;;;;11.43;7.57;;;2.30;99.90;;;;;;5080091;28;20288;-84
2022/04/02 05:10:10;;;;;;;14.32;10.52;;;2.20;99.90;;;;;;5092924;28;20205;-85
2022/04/02 05:12:38;;;;;;;14.57;8.43;;;2.10;99.90;;;;;;5093036;28;20198;-85
2022/04/02 05:15:08;;;;;;;16.92;10.25;;;2.10;99.90;;;;;;5093815;28;20225;-83
2022/04/02 05:17:35;;;;;;;9.00;5.38;;;2.20;99.90;;;;;;5092413;28;20197;-84
2022/04/02 05:20:02;;;;;;;15.13;11.57;;;2.10;99.90;;;;;;5086643;28;20213;-83
2022/04/02 05:22:31;;;;;;;13.70;10.85;;;2.10;99.90;;;;;;5100308;28;20206;-84
2022/04/02 05:24:58;;;;;;;20.33;12.00;;;2.00;99.90;;;;;;5097492;28;20205;-84
2022/04/02 05:27:25;;;;;;;13.38;8.00;;;2.10;99.90;;;;;;5082099;28;20210;-85
2022/04/02 05:29:52;;;;;;;14.02;9.60;;;2.00;99.90;;;;;;5081458;28;20213;-86
2022/04/02 05:32:19;;;;;;;12.88;8.93;;;2.30;99.90;;;;;;5081682;28;20222;-84
2022/04/02 05:34:46;;;;;;;16.73;9.60;;;2.00;99.90;;;;;;5080655;28;20221;-86
2022/04/02 05:37:13;;;;;;;16.80;12.10;;;2.10;99.90;;;;;;5080949;28;20288;-85
2022/04/02 05:39:42;;;;;;;13.88;8.23;;;2.20;99.90;;;;;;5080680;28;20290;-84
2022/04/02 05:42:12;;;;;;;16.45;12.48;;;2.40;99.90;;;;;;5082280;28;20231;-84
2022/04/02 05:44:39;;;;;;;11.52;8.38;;;2.40;99.90;;;;;;5081715;28;20292;-85
2022/04/02 05:47:06;;;;;;;13.32;10.95;;;2.20;99.90;;;;;;5080914;28;20240;-85
2022/04/02 05:49:34;;;;;;;14.48;9.13;;;2.60;99.90;;;;;;5081398;28;20247;-84
2022/04/02 05:52:01;;;;;;;13.05;8.68;;;2.40;99.90;;;;;;5090086;28;20209;-85
2022/04/02 05:54:28;;;;;;;8.98;6.53;;;2.40;99.90;;;;;;5093359;28;20285;-85
2022/04/02 05:56:56;;;;;;;8.48;4.25;;;2.40;99.90;;;;;;5083187;28;20258;-85
2022/04/02 05:59:24;;;;;;;9.23;5.97;;;2.20;99.90;;;;;;5081610;28;20271;-85
2022/04/02 06:02:09;;;;;;;;;;;;;;;;;;;;;
2022/04/02 06:04:42;;;;;;;11.77;7.10;;;2.00;99.90;;;;;;5082611;28;20315;-85
2022/04/02 06:07:11;;;;;;;14.15;7.15;;;2.40;99.90;;;;;;5087135;28;20200;-86
2022/04/02 06:09:38;;;;;;;12.02;7.95;;;2.30;99.90;;;;;;5088442;28;20320;-84
2022/04/02 06:12:07;;;;;;;12.70;8.05;;;2.20;99.90;;;;;;5088021;28;20205;-85
2022/04/02 06:14:34;;;;;;;11.27;9.23;;;2.30;99.90;;;;;;5084491;28;20324;-86
2022/04/02 06:17:09;;;;;;;10.20;7.70;;;2.20;99.90;;;;;;5081852;28;20205;-86
2022/04/02 06:19:36;;;;;;;15.50;8.73;;;2.30;99.90;;;;;;5085840;28;20220;-85
2022/04/02 06:22:06;;;;;;;13.35;9.65;;;2.10;99.90;;;;;;5086882;28;20216;-86
2022/04/02 06:24:33;;;;;;;8.00;5.63;;;2.10;99.90;;;;;;5084668;28;20190;-84
2022/04/02 06:27:00;;;;;;;12.43;7.70;;;2.50;99.90;;;;;;5081266;28;20296;-85
2022/04/02 06:29:28;;;;;;;14.77;9.70;;;2.30;99.90;;;;;;5081727;28;20232;-85
2022/04/02 06:31:56;;;;;;;10.30;6.55;;;2.40;99.90;;;;;;5096918;28;20228;-83
2022/04/02 06:34:23;;;;;;;10.68;6.90;;;2.00;99.90;;;;;;5086386;28;20225;-83
2022/04/02 06:36:50;;;;;;;9.70;6.90;;;2.10;99.90;;;;;;5081004;28;20209;-84
2022/04/02 06:39:17;;;;;;;6.03;3.58;;;2.10;99.90;;;;;;5080514;28;20304;-85
2022/04/02 06:41:44;;;;;;;10.40;7.43;;;2.40;99.90;;;;;;5085165;28;20213;-83
2022/04/02 06:44:11;;;;;;;11.80;7.25;;;2.30;99.90;;;;;;5085431;28;20272;-85
2022/04/02 06:46:40;;;;;;;10.90;8.88;;;2.30;99.90;;;;;;5081521;28;20209;-85
2022/04/02 06:49:09;;;;;;;10.68;7.90;;;2.40;99.90;;;;;;5081186;28;20244;-82
2022/04/02 06:51:36;;;;;;;11.00;7.65;;;2.40;99.90;;;;;;5080382;28;20205;-85
2022/04/02 06:54:05;;;;;;;8.00;4.80;;;2.00;99.90;;;;;;5092108;28;20277;-85
2022/04/02 06:56:32;;;;;;;10.23;6.80;;;2.30;99.90;;;;;;5097385;28;20210;-83
2022/04/02 06:58:58;;;;;;;10.07;7.40;;;2.30;99.90;;;;;;5087416;28;20760;-84
2022/04/02 07:01:25;;;;;;;8.80;6.70;;;2.50;99.90;;;;;;5079039;28;20715;-86
2022/04/02 07:03:54;;;;;;;12.65;8.13;;;2.40;99.90;;;;;;5079192;28;20657;-85
2022/04/02 07:06:21;;;;;;;24.83;8.25;;;2.20;99.90;;;;;;5082900;28;20259;-85
2022/04/02 07:08:47;;;;;;;7.75;5.45;;;2.50;99.90;;;;;;5079436;28;20725;-85
2022/04/02 07:11:14;;;;;;;10.98;8.55;;;2.20;99.90;;;;;;5079899;28;20389;-85
2022/04/02 07:13:41;;;;;;;8.15;4.75;;;2.20;99.90;;;;;;5082833;28;20228;-84
2022/04/02 07:16:08;;;;;;;11.88;7.72;;;2.20;99.90;;;;;;5082230;28;20229;-85
2022/04/02 07:18:35;;;;;;;8.65;4.43;;;2.30;99.90;;;;;;5079353;28;20300;-86
2022/04/02 07:21:04;;;;;;;9.88;6.82;;;2.20;99.90;;;;;;5080266;28;20206;-85
2022/04/02 07:23:32;;;;;;;5.25;3.55;;;2.20;99.90;;;;;;5080678;28;20216;-85
2022/04/02 07:25:59;;;;;;;9.30;5.55;;;2.00;99.90;;;;;;5079965;28;20208;-86
2022/04/02 07:28:27;;;;;;;10.50;7.35;;;2.30;99.90;;;;;;5079474;28;20243;-85
2022/04/02 07:30:56;;;;;;;10.50;6.97;;;2.10;99.90;;;;;;5079331;28;20239;-86
2022/04/02 07:33:28;;;;;;;9.50;6.55;;;2.20;99.90;;;;;;5078261;28;20688;-84
2022/04/02 07:35:58;;;;;;;11.88;8.55;;;2.20;99.90;;;;;;5079021;28;20570;-86
2022/04/02 07:38:42;;;;;;;10.30;5.93;;;2.20;99.90;;;;;;5078207;28;20241;-87
2022/04/02 07:41:22;;;;;;;9.43;6.75;;;2.20;99.90;;;;;;5080644;28;20212;-83
2022/04/02 07:43:52;;;;;;;15.48;9.60;;;2.30;99.90;;;;;;5085337;28;20209;-85
2022/04/02 07:46:24;;;;;;;5.60;3.13;;;2.30;99.90;;;;;;5079149;28;20212;-85
2022/04/02 07:48:51;;;;;;;8.68;5.25;;;2.20;99.90;;;;;;5082143;28;20225;-84
2022/04/02 07:51:19;;;;;;;7.97;5.13;;;2.10;99.90;;;;;;5093280;28;20206;-85
2022/04/02 07:53:50;;;;;;;7.60;5.32;;;2.00;99.90;;;;;;5083533;28;20254;-86
2022/04/02 07:56:23;;;;;;;13.95;6.10;;;1.90;99.90;;;;;;5077390;28;20227;-84
2022/04/02 07:58:56;;;;;;;8.45;5.00;;;1.50;99.90;;;;;;5077678;28;20278;-86
2022/04/02 08:01:23;;;;;;;9.90;5.80;;;1.90;99.90;;;;;;5080815;28;20228;-86
2022/04/02 08:03:50;;;;;;;10.35;7.70;;;2.00;99.90;;;;;;5085443;28;20663;-86
2022/04/02 08:06:17;;;;;;;9.02;5.80;;;2.00;99.90;;;;;;5085155;28;20198;-84
2022/04/02 08:08:44;;;;;;;13.55;8.05;;;2.20;99.90;;;;;;5093387;28;20229;-84
2022/04/02 08:11:13;;;;;;;5.57;3.67;;;2.30;99.90;;;;;;5081702;28;20216;-85
2022/04/02 08:13:44;;;;;;;12.50;8.13;;;2.20;99.90;;;;;;5083821;28;20236;-85
2022/04/02 08:16:11;;;;;;;8.48;5.97;;;2.30;99.90;;;;;;5085732;28;20304;-83
2022/04/02 08:18:40;;;;;;;10.43;6.50;;;2.30;99.90;;;;;;5088361;28;20255;-86
2022/04/02 08:21:08;;;;;;;9.98;6.22;;;1.90;99.90;;;;;;5095011;28;20236;-83
2022/04/02 08:23:36;;;;;;;6.43;3.42;;;2.00;99.90;;;;;;5090971;28;20212;-84
2022/04/02 08:26:28;;;;;;;7.57;4.75;;;1.90;99.90;;;;;;5085744;28;20198;-86
2022/04/02 08:29:14;;;;;;;8.02;4.70;;;1.50;99.90;;;;;;5078790;28;20267;-86
2022/04/02 08:31:56;;;;;;;7.40;4.43;;;1.90;99.90;;;;;;5078985;28;20609;-86
2022/04/02 08:34:37;;;;;;;8.90;4.90;;;1.90;99.90;;;;;;5078614;28;20220;-86
2022/04/02 08:37:13;;;;;;;7.45;5.00;;;2.10;99.90;;;;;;5078671;28;20185;-86
2022/04/02 08:39:49;;;;;;;12.10;8.07;;;2.00;99.90;;;;;;5079936;28;20299;-86
2022/04/02 08:42:46;;;;;;;7.82;5.35;;;2.00;99.90;;;;;;5084782;28;20186;-87
2022/04/02 08:45:14;;;;;;;10.77;7.38;;;2.10;99.90;;;;;;5080140;28;20642;-86
2022/04/02 08:48:25;;;;;;;12.90;8.70;;;2.00;99.90;;;;;;5077099;28;20229;-87
2022/04/02 08:51:03;;;;;;;12.65;7.18;;;2.10;99.90;;;;;;5078317;28;20231;-86
2022/04/02 08:53:59;;;;;;;10.57;5.88;;;2.00;99.90;;;;;;5078166;28;20189;-86
2022/04/02 08:56:30;;;;;;;8.80;5.57;;;1.90;99.90;;;;;;5082811;28;20628;-86
2022/04/02 08:59:01;;;;;;;14.00;8.80;;;1.70;99.90;;;;;;5083586;28;20225;-87
2022/04/02 09:01:31;;;;;;;12.25;9.02;;;2.10;99.90;;;;;;5084084;28;20189;-87
2022/04/02 09:04:37;;;;;;;7.80;5.78;;;2.30;99.90;;;;;;5085682;28;20209;-86
2022/04/02 09:07:43;;;;;;;8.55;5.28;;;2.30;99.90;;;;;;5085884;28;20622;-86
2022/04/02 09:10:59;;;;;;;13.65;8.63;;;2.10;99.90;;;;;;5095312;28;20213;-87
2022/04/02 09:14:09;;;;;;;12.63;8.45;;;2.00;99.90;;;;;;5086216;28;20591;-85
2022/04/02 09:16:44;;;;;;;10.10;6.07;;;2.00;99.90;;;;;;5064459;28;20282;-86
2022/04/02 09:19:23;;;;;;;13.18;8.98;;;2.20;99.90;;;;;;5098844;28;20217;-86
2022/04/02 09:22:05;;;;;;;10.82;7.18;;;2.10;99.90;;;;;;5098797;28;20188;-87
2022/04/02 09:25:04;;;;;;;10.23;7.38;;;2.20;99.90;;;;;;5089852;28;20208;-87
2022/04/02 09:28:08;;;;;;;8.13;5.28;;;2.10;99.90;;;;;;5092423;28;20255;-87
2022/04/02 09:31:06;;;;;;;9.77;6.38;;;2.20;99.90;;;;;;5091138;28;20196;-87
2022/04/02 09:34:26;;;;;;;15.68;9.13;;;2.10;99.90;;;;;;5093785;28;20196;-84
2022/04/02 09:37:04;;;;;;;9.40;6.78;;;2.20;99.90;;;;;;5092784;28;20298;-86
2022/04/02 09:39:54;;;;;;;8.93;5.57;;;2.10;99.90;;;;;;5091484;28;20293;-85
2022/04/02 09:42:37;;;;;;;11.90;6.00;;;2.00;99.90;;;;;;5089011;28;20236;-86
2022/04/02 09:45:08;;;;;;;13.65;8.85;;;1.50;99.90;;;;;;5090324;28;20197;-86
2022/04/02 09:48:02;;;;;;;15.98;10.57;;;2.00;99.90;;;;;;5097049;28;20234;-87
2022/04/02 09:50:30;;;;;;;9.75;6.30;;;2.10;99.90;;;;;;5097827;28;20249;-84
2022/04/02 09:52:59;;;;;;;17.77;8.20;;;2.00;99.90;;;;;;5092615;28;20293;-85
2022/04/02 09:55:29;;;;;;;11.60;7.00;;;2.30;99.90;;;;;;5085175;28;20253;-85
2022/04/02 09:58:22;;;;;;;8.85;5.90;;;2.00;99.90;;;;;;5084745;28;20236;-86
2022/04/02 10:00:53;;;;;;;12.63;9.52;;;2.10;99.90;;;;;;5079906;28;20307;-87
2022/04/02 10:03:33;;;;;;;14.48;9.27;;;2.20;99.90;;;;;;5090488;28;20619;-86
2022/04/02 10:06:25;;;;;;;10.25;6.25;;;2.20;99.90;;;;;;5091313;28;20554;-87
2022/04/02 10:09:05;;;;;;;11.60;7.80;;;2.20;99.90;;;;;;5086258;28;20221;-86
2022/04/02 10:11:35;;;;;;;14.45;8.98;;;2.10;99.90;;;;;;5089956;28;20228;-87
2022/04/02 10:14:04;;;;;;;13.70;7.93;;;2.20;99.90;;;;;;5091987;28;20197;-87
2022/04/02 10:16:35;;;;;;;17.35;9.68;;;2.10;99.90;;;;;;5088571;28;20304;-85
2022/04/02 10:19:13;;;;;;;17.10;11.05;;;2.00;99.90;;;;;;5084100;28;20654;-87
2022/04/02 10:21:40;;;;;;;11.02;7.35;;;2.30;99.90;;;;;;5084458;28;20216;-86
2022/04/02 10:24:17;;;;;;;12.25;7.63;;;2.20;99.90;;;;;;5082562;28;20243;-89
2022/04/02 10:26:52;;;;;;;17.88;7.00;;;2.20;99.90;;;;;;5090290;28;20263;-85
2022/04/02 10:29:36;;;;;;;14.52;6.28;;;2.00;99.90;;;;;;5098171;28;20244;-86
2022/04/02 10:32:25;;;;;;;14.27;8.95;;;1.90;99.90;;;;;;5096086;28;20177;-86
2022/04/02 10:34:57;;;;;;;14.18;9.77;;;2.10;99.90;;;;;;5089492;28;20228;-87
2022/04/02 10:37:31;;;;;;;15.00;10.45;;;2.00;99.90;;;;;;5083067;28;20213;-87
2022/04/02 10:40:02;;;;;;;11.20;8.50;;;2.20;99.90;;;;;;5114685;22;20236;-86
2022/04/02 10:42:39;;;;;;;14.07;8.07;;;2.30;99.90;;;;;;5090355;28;20212;-87
2022/04/02 10:45:10;;;;;;;11.60;8.27;;;2.30;99.90;;;;;;5085961;28;20223;-87
2022/04/02 10:47:42;;;;;;;11.13;6.45;;;2.20;99.90;;;;;;5083398;28;20189;-87
2022/04/02 10:50:12;;;;;;;15.55;11.77;;;2.10;99.90;;;;;;5083066;28;20229;-86
2022/04/02 10:52:44;;;;;;;12.98;10.27;;;2.30;99.90;;;;;;5082785;28;20193;-86
2022/04/02 10:55:15;;;;;;;8.82;4.53;;;2.10;99.90;;;;;;5082276;28;20221;-87
2022/04/02 10:57:42;;;;;;;11.77;7.18;;;2.30;99.90;;;;;;5083122;28;20210;-87
2022/04/02 11:00:12;;;;;;;17.40;9.93;;;2.40;99.90;;;;;;5083853;28;20237;-87
2022/04/02 11:02:42;;;;;;;6.82;5.05;;;2.30;99.90;;;;;;5084088;28;20588;-86
2022/04/02 11:05:13;;;;;;;8.95;5.80;;;2.30;99.90;;;;;;5082883;28;20205;-86
2022/04/02 11:07:44;;;;;;;13.68;9.88;;;2.20;99.90;;;;;;5082202;28;20627;-86
2022/04/02 11:10:16;;;;;;;9.95;6.75;;;2.30;99.90;;;;;;5087981;28;20226;-86
2022/04/02 11:12:44;;;;;;;13.95;9.35;;;2.10;99.90;;;;;;5082069;28;20209;-85
2022/04/02 11:15:14;;;;;;;12.80;9.10;;;2.10;99.90;;;;;;5085248;28;20198;-87
2022/04/02 11:17:46;;;;;;;13.10;7.95;;;2.30;99.90;;;;;;5095519;28;20232;-86
2022/04/02 11:20:17;;;;;;;11.57;9.18;;;2.40;99.90;;;;;;5092040;28;20226;-87
2022/04/02 11:23:21;;;;;;;16.48;10.10;;;2.20;99.90;;;;;;5081576;28;20225;-87
2022/04/02 11:25:55;;;;;;;13.35;8.98;;;2.50;99.90;;;;;;5081996;28;20200;-86
2022/04/02 11:28:25;;;;;;;12.70;10.07;;;2.40;99.90;;;;;;5081477;28;20232;-86
2022/04/02 11:30:54;;;;;;;11.60;8.35;;;2.50;99.90;;;;;;5082027;28;20209;-86
2022/04/02 11:33:23;;;;;;;16.05;11.40;;;2.60;99.90;;;;;;5081613;28;20262;-86
2022/04/02 11:36:23;;;;;;;13.68;10.02;;;2.30;99.90;;;;;;5080886;28;20249;-85
2022/04/02 11:38:54;;;;;;;13.50;9.57;;;2.70;99.90;;;;;;5081338;28;20240;-86
2022/04/02 11:41:37;;;;;;;14.60;10.45;;;2.80;99.90;;;;;;5081065;28;20211;-86
2022/04/02 11:44:08;;;;;;;13.10;9.10;;;2.60;99.90;;;;;;5080433;28;20265;-86
2022/04/02 11:46:54;;;;;;;16.20;10.85;;;2.50;99.90;;;;;;5082103;28;20194;-86
2022/04/02 11:49:28;;;;;;;8.52;5.72;;;2.60;99.90;;;;;;5082028;28;20252;-86
2022/04/02 11:52:05;;;;;;;14.18;9.45;;;2.50;99.90;;;;;;5083222;28;20243;-86
2022/04/02 11:54:39;;;;;;;18.13;9.45;;;2.40;99.90;;;;;;5088432;28;20196;-87
2022/04/02 11:57:13;;;;;;;15.40;8.80;;;2.40;99.90;;;;;;5086534;28;20727;-86
2022/04/02 11:59:52;;;;;;;7.85;4.70;;;2.40;99.90;;;;;;5085765;28;20217;-85
2022/04/02 12:02:37;;;;;;;14.10;9.50;;;2.40;99.90;;;;;;5085981;28;20186;-85
2022/04/02 12:05:06;;;;;;;13.70;9.77;;;2.30;99.90;;;;;;5087403;28;20320;-85
2022/04/02 12:07:43;;;;;;;11.98;7.35;;;2.50;99.90;;;;;;5085119;28;20205;-85
2022/04/02 12:10:14;;;;;;;16.10;10.75;;;2.20;99.90;;;;;;5082849;28;20230;-85
2022/04/02 12:12:45;;;;;;;17.08;12.43;;;2.30;99.90;;;;;;5083560;28;20194;-85
2022/04/02 12:15:16;;;;;;;13.85;10.13;;;2.30;99.90;;;;;;5082353;28;20254;-85
2022/04/02 12:17:47;;;;;;;19.17;11.88;;;2.50;99.90;;;;;;5082586;28;20221;-87
2022/04/02 12:20:19;;;;;;;16.65;9.98;;;2.60;99.90;;;;;;5083414;28;20576;-86
2022/04/02 12:22:48;;;;;;;17.27;12.63;;;2.40;99.90;;;;;;5092444;28;20220;-85
2022/04/02 12:25:21;;;;;;;16.88;12.43;;;2.60;99.90;;;;;;5095466;28;20252;-86
2022/04/02 12:27:51;;;;;;;19.58;13.25;;;2.70;99.90;;;;;;5095780;28;20205;-87
2022/04/02 12:30:23;;;;;;;13.00;6.90;;;2.40;99.90;;;;;;5092396;28;20194;-86
2022/04/02 12:33:05;;;;;;;16.08;12.00;;;2.50;99.90;;;;;;5089371;28;20209;-86
2022/04/02 12:35:34;;;;;;;17.50;13.38;;;2.50;99.90;;;;;;5090573;28;20280;-87
2022/04/02 12:38:05;;;;;;;18.25;12.25;;;2.40;99.90;;;;;;5083168;28;20221;-86
2022/04/02 12:40:41;;;;;;;18.83;13.45;;;2.50;99.90;;;;;;5085126;28;20257;-86
2022/04/02 12:43:13;;;;;;;13.48;8.32;;;2.00;99.90;;;;;;5086466;28;20265;-87
2022/04/02 12:45:40;;;;;;;20.38;13.40;;;2.30;99.90;;;;;;5091030;28;20220;-85
2022/04/02 12:48:10;;;;;;;18.35;12.77;;;2.40;99.90;;;;;;5090706;28;20213;-86
2022/04/02 12:50:42;;;;;;;17.23;12.15;;;2.20;99.90;;;;;;5082774;28;20232;-86
2022/04/02 12:53:11;;;;;;;19.17;13.05;;;2.30;99.90;;;;;;5082286;28;20204;-85
2022/04/02 12:55:38;;;;;;;13.55;9.13;;;2.40;99.90;;;;;;5081952;28;20677;-86
2022/04/02 12:58:10;;;;;;;15.07;10.07;;;2.40;99.90;;;;;;5087151;28;20255;-88
2022/04/02 13:00:39;;;;;;;12.70;9.10;;;2.10;99.90;;;;;;5089022;28;20190;-86
2022/04/02 13:03:07;;;;;;;17.98;10.68;;;2.10;99.90;;;;;;5090988;28;20209;-86
2022/04/02 13:05:46;;;;;;;17.38;12.73;;;2.20;99.90;;;;;;5093616;28;20213;-86
2022/04/02 13:08:24;;;;;;;19.92;12.80;;;2.20;99.90;;;;;;5087125;28;20228;-86
2022/04/02 13:10:56;;;;;;;14.77;10.90;;;2.50;99.90;;;;;;5093172;28;20205;-85
2022/04/02 13:13:40;;;;;;;13.07;8.50;;;2.50;99.90;;;;;;5084443;28;20202;-85
2022/04/02 13:16:10;;;;;;;18.23;11.35;;;2.20;99.90;;;;;;5080104;28;20210;-85
2022/04/02 13:21:32;;;;;;;13.20;9.60;;;2.30;99.90;;;;;;5081802;28;20208;-86
2022/04/02 13:24:43;;;;;;;15.80;11.18;;;2.60;99.90;;;;;;5080400;28;20209;-86
2022/04/02 13:27:57;;;;;;;17.88;12.15;;;2.60;99.90;;;;;;5017294;28;20683;-85
2022/04/02 13:30:34;;;;;;;14.13;9.95;;;2.60;99.90;;;;;;5019239;28;20207;-87
2022/04/02 13:33:38;;;;;;;16.25;11.32;;;2.50;99.90;;;;;;5073687;28;20224;-85
2022/04/02 13:36:17;;;;;;;7.97;6.05;;;2.30;99.90;;;;;;5079802;28;20676;-87
2022/04/02 13:38:56;;;;;;;13.93;9.95;;;2.50;99.90;;;;;;5079681;28;20259;-86
2022/04/02 13:41:30;;;;;;;13.40;9.25;;;2.40;99.90;;;;;;5081822;28;20189;-85
2022/04/02 13:44:01;;;;;;;10.90;6.97;;;2.40;99.90;;;;;;5084716;28;20186;-86
2022/04/02 13:46:43;;;;;;;8.63;5.47;;;2.50;99.90;;;;;;5086398;28;20190;-86
2022/04/02 13:49:12;;;;;;;11.90;8.95;;;2.50;99.90;;;;;;5087190;28;20316;-86
2022/04/02 13:51:46;;;;;;;15.73;11.10;;;2.50;99.90;;;;;;5084795;28;20266;-86
2022/04/02 13:54:27;;;;;;;17.63;10.73;;;2.00;99.90;;;;;;5084336;28;20262;-86
2022/04/02 13:57:07;;;;;;;16.58;12.95;;;2.30;99.90;;;;;;5084360;28;20205;-87
2022/04/02 13:59:40;;;;;;;23.38;8.82;;;2.40;99.90;;;;;;5083602;28;20218;-85
2022/04/02 14:02:13;;;;;;;14.23;6.53;;;2.40;99.90;;;;;;5083182;28;20597;-86